sensor_id;sensor_type;location;lat;lon;timestamp;P1;durP1;ratioP1;P2;durP2;ratioP2
39740;SDS011;25426;53.478;10.190;2023-04-24T00:00:14;7.85;;;7.13;;
39740;SDS011;25426;53.478;10.190;2023-04-24T00:02:45;7.57;;;6.82;;
39740;SDS011;25426;53.478;10.190;2023-04-24T00:05:17;7.13;;;6.53;;
39740;SDS011;25426;53.478;10.190;2023-04-24T00:07:48;8.00;;;7.22;;
39740;SDS011;25426;53.478;10.190;2023-04-24T00:10:22;7.55;;;6.93;;
39740;SDS011;25426;53.478;10.190;2023-04-24T00:12:53;7.90;;;7.20;;
39740;SDS011;25426;53.478;10.190;2023-04-24T00:15:24;7.68;;;6.97;;
39740;SDS011;25426;53.478;10.190;2023-04-24T00:17:55;8.07;;;7.28;;
39740;SDS011;25426;53.478;10.190;2023-04-24T00:20:26;8.65;;;7.57;;
39740;SDS011;25426;53.478;10.190;2023-04-24T00:23:02;8.82;;;8.00;;
39740;SDS011;25426;53.478;10.190;2023-04-24T00:25:33;9.07;;;7.03;;
39740;SDS011;25426;53.478;10.190;2023-04-24T00:28:04;8.00;;;7.18;;
39740;SDS011;25426;53.478;10.190;2023-04-24T00:30:35;8.02;;;7.32;;
39740;SDS011;25426;53.478;10.190;2023-04-24T00:33:06;8.25;;;7.43;;
39740;SDS011;25426;53.478;10.190;2023-04-24T00:35:38;8.77;;;7.88;;
39740;SDS011;25426;53.478;10.190;2023-04-24T00:38:08;8.45;;;7.75;;
39740;SDS011;25426;53.478;10.190;2023-04-24T00:40:40;8.98;;;7.90;;
39740;SDS011;25426;53.478;10.190;2023-04-24T00:43:11;8.43;;;7.63;;
39740;SDS011;25426;53.478;10.190;2023-04-24T00:45:41;8.60;;;7.70;;
39740;SDS011;25426;53.478;10.190;2023-04-24T00:48:13;8.05;;;7.25;;
39740;SDS011;25426;53.478;10.190;2023-04-24T00:50:45;10.15;;;8.25;;
39740;SDS011;25426;53.478;10.190;2023-04-24T00:53:18;12.00;;;8.15;;
39740;SDS011;25426;53.478;10.190;2023-04-24T00:55:48;8.60;;;7.70;;
39740;SDS011;25426;53.478;10.190;2023-04-24T00:58:20;8.38;;;7.68;;
39740;SDS011;25426;53.478;10.190;2023-04-24T01:00:51;8.27;;;7.57;;
39740;SDS011;25426;53.478;10.190;2023-04-24T01:03:24;7.97;;;7.28;;
39740;SDS011;25426;53.478;10.190;2023-04-24T01:05:59;7.78;;;7.07;;
39740;SDS011;25426;53.478;10.190;2023-04-24T01:08:30;7.32;;;6.68;;
39740;SDS011;25426;53.478;10.190;2023-04-24T01:11:01;7.47;;;6.78;;
39740;SDS011;25426;53.478;10.190;2023-04-24T01:13:34;7.57;;;6.80;;
39740;SDS011;25426;53.478;10.190;2023-04-24T01:16:06;8.27;;;7.47;;
39740;SDS011;25426;53.478;10.190;2023-04-24T01:18:38;7.72;;;7.03;;
39740;SDS011;25426;53.478;10.190;2023-04-24T01:21:09;7.28;;;6.60;;
39740;SDS011;25426;53.478;10.190;2023-04-24T01:23:41;7.00;;;6.30;;
39740;SDS011;25426;53.478;10.190;2023-04-24T01:26:14;6.95;;;6.18;;
39740;SDS011;25426;53.478;10.190;2023-04-24T01:28:48;6.20;;;5.68;;
39740;SDS011;25426;53.478;10.190;2023-04-24T01:31:19;6.32;;;5.72;;
39740;SDS011;25426;53.478;10.190;2023-04-24T01:33:51;6.20;;;5.10;;
39740;SDS011;25426;53.478;10.190;2023-04-24T01:36:22;5.90;;;5.40;;
39740;SDS011;25426;53.478;10.190;2023-04-24T01:38:54;6.88;;;5.53;;
39740;SDS011;25426;53.478;10.190;2023-04-24T01:41:25;7.75;;;5.47;;
39740;SDS011;25426;53.478;10.190;2023-04-24T01:43:56;6.43;;;5.82;;
39740;SDS011;25426;53.478;10.190;2023-04-24T01:46:28;7.82;;;5.90;;
39740;SDS011;25426;53.478;10.190;2023-04-24T01:49:01;5.55;;;5.05;;
39740;SDS011;25426;53.478;10.190;2023-04-24T01:51:32;5.95;;;5.22;;
39740;SDS011;25426;53.478;10.190;2023-04-24T01:54:03;5.72;;;5.13;;
39740;SDS011;25426;53.478;10.190;2023-04-24T01:56:35;7.93;;;5.20;;
39740;SDS011;25426;53.478;10.190;2023-04-24T01:59:07;6.75;;;6.00;;
39740;SDS011;25426;53.478;10.190;2023-04-24T02:01:41;5.97;;;5.45;;
39740;SDS011;25426;53.478;10.190;2023-04-24T02:04:11;6.78;;;6.00;;
39740;SDS011;25426;53.478;10.190;2023-04-24T02:06:44;5.70;;;5.30;;
39740;SDS011;25426;53.478;10.190;2023-04-24T02:09:15;7.13;;;4.80;;
39740;SDS011;25426;53.478;10.190;2023-04-24T02:11:46;6.03;;;5.43;;
39740;SDS011;25426;53.478;10.190;2023-04-24T02:14:17;6.78;;;6.05;;
39740;SDS011;25426;53.478;10.190;2023-04-24T02:16:48;6.53;;;5.85;;
39740;SDS011;25426;53.478;10.190;2023-04-24T02:19:19;5.18;;;4.68;;
39740;SDS011;25426;53.478;10.190;2023-04-24T02:21:50;6.00;;;5.07;;
39740;SDS011;25426;53.478;10.190;2023-04-24T02:24:21;6.15;;;5.25;;
39740;SDS011;25426;53.478;10.190;2023-04-24T02:26:52;4.80;;;4.22;;
39740;SDS011;25426;53.478;10.190;2023-04-24T02:29:23;4.72;;;4.15;;
39740;SDS011;25426;53.478;10.190;2023-04-24T02:31:54;3.85;;;3.55;;
39740;SDS011;25426;53.478;10.190;2023-04-24T02:34:25;4.57;;;3.03;;
39740;SDS011;25426;53.478;10.190;2023-04-24T02:36:56;4.25;;;3.17;;
39740;SDS011;25426;53.478;10.190;2023-04-24T02:39:27;2.72;;;2.53;;
39740;SDS011;25426;53.478;10.190;2023-04-24T02:44:29;3.63;;;2.92;;
39740;SDS011;25426;53.478;10.190;2023-04-24T02:47:00;3.63;;;2.70;;
39740;SDS011;25426;53.478;10.190;2023-04-24T02:49:31;3.03;;;2.70;;
39740;SDS011;25426;53.478;10.190;2023-04-24T02:52:02;2.40;;;2.20;;
39740;SDS011;25426;53.478;10.190;2023-04-24T02:54:33;2.38;;;2.10;;
39740;SDS011;25426;53.478;10.190;2023-04-24T02:57:04;2.50;;;2.30;;
39740;SDS011;25426;53.478;10.190;2023-04-24T02:59:36;2.53;;;2.10;;
39740;SDS011;25426;53.478;10.190;2023-04-24T03:02:07;2.38;;;2.17;;
39740;SDS011;25426;53.478;10.190;2023-04-24T03:04:38;5.35;;;2.47;;
39740;SDS011;25426;53.478;10.190;2023-04-24T03:07:10;2.70;;;2.05;;
39740;SDS011;25426;53.478;10.190;2023-04-24T03:09:41;2.38;;;2.13;;
39740;SDS011;25426;53.478;10.190;2023-04-24T03:12:12;2.38;;;1.63;;
39740;SDS011;25426;53.478;10.190;2023-04-24T03:14:43;2.20;;;2.00;;
39740;SDS011;25426;53.478;10.190;2023-04-24T03:17:14;2.50;;;1.98;;
39740;SDS011;25426;53.478;10.190;2023-04-24T03:19:45;2.92;;;1.92;;
39740;SDS011;25426;53.478;10.190;2023-04-24T03:22:16;1.85;;;1.75;;
39740;SDS011;25426;53.478;10.190;2023-04-24T03:24:48;3.47;;;1.80;;
39740;SDS011;25426;53.478;10.190;2023-04-24T03:27:22;2.95;;;2.08;;
39740;SDS011;25426;53.478;10.190;2023-04-24T03:29:57;3.22;;;2.30;;
39740;SDS011;25426;53.478;10.190;2023-04-24T03:32:36;2.10;;;1.90;;
39740;SDS011;25426;53.478;10.190;2023-04-24T03:35:07;2.13;;;1.92;;
39740;SDS011;25426;53.478;10.190;2023-04-24T03:37:39;4.85;;;2.17;;
39740;SDS011;25426;53.478;10.190;2023-04-24T03:40:28;2.65;;;2.05;;
39740;SDS011;25426;53.478;10.190;2023-04-24T03:43:00;2.60;;;2.40;;
39740;SDS011;25426;53.478;10.190;2023-04-24T03:45:31;2.72;;;2.42;;
39740;SDS011;25426;53.478;10.190;2023-04-24T03:48:03;2.60;;;2.38;;
39740;SDS011;25426;53.478;10.190;2023-04-24T03:50:34;2.65;;;2.45;;
39740;SDS011;25426;53.478;10.190;2023-04-24T03:53:05;2.50;;;2.30;;
39740;SDS011;25426;53.478;10.190;2023-04-24T03:55:43;2.50;;;2.30;;
39740;SDS011;25426;53.478;10.190;2023-04-24T03:58:14;2.45;;;2.25;;
39740;SDS011;25426;53.478;10.190;2023-04-24T04:00:45;3.40;;;2.20;;
39740;SDS011;25426;53.478;10.190;2023-04-24T04:03:42;2.80;;;2.05;;
39740;SDS011;25426;53.478;10.190;2023-04-24T04:06:13;2.13;;;2.03;;
39740;SDS011;25426;53.478;10.190;2023-04-24T04:08:45;2.40;;;2.13;;
39740;SDS011;25426;53.478;10.190;2023-04-24T04:11:17;2.40;;;2.20;;
39740;SDS011;25426;53.478;10.190;2023-04-24T04:13:49;2.17;;;1.98;;
39740;SDS011;25426;53.478;10.190;2023-04-24T04:16:23;1.90;;;1.80;;
39740;SDS011;25426;53.478;10.190;2023-04-24T04:18:58;2.10;;;1.90;;
39740;SDS011;25426;53.478;10.190;2023-04-24T04:21:29;2.53;;;2.03;;
39740;SDS011;25426;53.478;10.190;2023-04-24T04:24:10;3.47;;;2.13;;
39740;SDS011;25426;53.478;10.190;2023-04-24T04:26:46;2.17;;;1.98;;
39740;SDS011;25426;53.478;10.190;2023-04-24T04:29:24;2.05;;;1.70;;
39740;SDS011;25426;53.478;10.190;2023-04-24T04:31:56;3.00;;;2.00;;
39740;SDS011;25426;53.478;10.190;2023-04-24T04:34:28;1.90;;;1.80;;
39740;SDS011;25426;53.478;10.190;2023-04-24T04:37:00;2.35;;;1.70;;
39740;SDS011;25426;53.478;10.190;2023-04-24T04:39:50;1.70;;;1.60;;
39740;SDS011;25426;53.478;10.190;2023-04-24T04:42:26;2.55;;;1.95;;
39740;SDS011;25426;53.478;10.190;2023-04-24T04:44:58;2.55;;;1.75;;
39740;SDS011;25426;53.478;10.190;2023-04-24T04:47:39;2.30;;;1.60;;
39740;SDS011;25426;53.478;10.190;2023-04-24T04:50:10;3.07;;;1.70;;
39740;SDS011;25426;53.478;10.190;2023-04-24T04:52:41;1.67;;;1.55;;
39740;SDS011;25426;53.478;10.190;2023-04-24T04:55:23;1.77;;;1.48;;
39740;SDS011;25426;53.478;10.190;2023-04-24T04:58:09;1.67;;;1.58;;
39740;SDS011;25426;53.478;10.190;2023-04-24T05:00:40;2.80;;;1.40;;
39740;SDS011;25426;53.478;10.190;2023-04-24T05:03:28;2.70;;;1.40;;
39740;SDS011;25426;53.478;10.190;2023-04-24T05:06:05;1.77;;;1.50;;
39740;SDS011;25426;53.478;10.190;2023-04-24T05:08:39;1.80;;;1.70;;
39740;SDS011;25426;53.478;10.190;2023-04-24T05:11:13;1.63;;;1.52;;
39740;SDS011;25426;53.478;10.190;2023-04-24T05:13:45;1.52;;;1.42;;
39740;SDS011;25426;53.478;10.190;2023-04-24T05:16:21;2.10;;;1.63;;
39740;SDS011;25426;53.478;10.190;2023-04-24T05:18:54;2.53;;;1.52;;
39740;SDS011;25426;53.478;10.190;2023-04-24T05:21:31;1.63;;;1.50;;
39740;SDS011;25426;53.478;10.190;2023-04-24T05:24:02;1.70;;;1.57;;
39740;SDS011;25426;53.478;10.190;2023-04-24T05:26:49;1.98;;;1.40;;
39740;SDS011;25426;53.478;10.190;2023-04-24T05:29:25;2.30;;;1.70;;
39740;SDS011;25426;53.478;10.190;2023-04-24T05:31:57;1.85;;;1.50;;
39740;SDS011;25426;53.478;10.190;2023-04-24T05:34:30;2.30;;;1.67;;
39740;SDS011;25426;53.478;10.190;2023-04-24T05:37:01;2.38;;;1.75;;
39740;SDS011;25426;53.478;10.190;2023-04-24T05:39:33;2.42;;;1.50;;
39740;SDS011;25426;53.478;10.190;2023-04-24T05:42:05;2.35;;;1.40;;
39740;SDS011;25426;53.478;10.190;2023-04-24T05:44:36;2.53;;;1.30;;
39740;SDS011;25426;53.478;10.190;2023-04-24T05:47:07;4.80;;;1.58;;
39740;SDS011;25426;53.478;10.190;2023-04-24T05:49:38;2.25;;;1.20;;
39740;SDS011;25426;53.478;10.190;2023-04-24T05:52:10;2.83;;;1.17;;
39740;SDS011;25426;53.478;10.190;2023-04-24T05:54:43;1.55;;;1.10;;
39740;SDS011;25426;53.478;10.190;2023-04-24T05:57:16;1.90;;;1.13;;
39740;SDS011;25426;53.478;10.190;2023-04-24T05:59:58;1.88;;;0.90;;
39740;SDS011;25426;53.478;10.190;2023-04-24T06:02:30;2.87;;;1.10;;
39740;SDS011;25426;53.478;10.190;2023-04-24T06:05:03;1.55;;;1.00;;
39740;SDS011;25426;53.478;10.190;2023-04-24T06:07:34;1.85;;;1.08;;
39740;SDS011;25426;53.478;10.190;2023-04-24T06:10:10;1.90;;;1.25;;
39740;SDS011;25426;53.478;10.190;2023-04-24T06:12:45;1.38;;;1.15;;
39740;SDS011;25426;53.478;10.190;2023-04-24T06:15:20;1.43;;;1.17;;
39740;SDS011;25426;53.478;10.190;2023-04-24T06:18:01;1.23;;;1.13;;
39740;SDS011;25426;53.478;10.190;2023-04-24T06:20:32;1.52;;;1.30;;
39740;SDS011;25426;53.478;10.190;2023-04-24T06:23:05;1.30;;;1.20;;
39740;SDS011;25426;53.478;10.190;2023-04-24T06:25:37;3.38;;;1.48;;
39740;SDS011;25426;53.478;10.190;2023-04-24T06:28:10;3.88;;;1.20;;
39740;SDS011;25426;53.478;10.190;2023-04-24T06:30:41;2.75;;;1.65;;
39740;SDS011;25426;53.478;10.190;2023-04-24T06:33:11;2.50;;;1.20;;
39740;SDS011;25426;53.478;10.190;2023-04-24T06:35:42;2.15;;;1.50;;
39740;SDS011;25426;53.478;10.190;2023-04-24T06:38:13;1.42;;;1.33;;
39740;SDS011;25426;53.478;10.190;2023-04-24T06:40:45;4.85;;;1.50;;
39740;SDS011;25426;53.478;10.190;2023-04-24T06:43:16;1.73;;;1.30;;
39740;SDS011;25426;53.478;10.190;2023-04-24T06:45:48;1.50;;;1.40;;
39740;SDS011;25426;53.478;10.190;2023-04-24T06:48:19;1.65;;;1.55;;
39740;SDS011;25426;53.478;10.190;2023-04-24T06:50:50;2.83;;;1.42;;
39740;SDS011;25426;53.478;10.190;2023-04-24T06:53:22;1.70;;;1.42;;
39740;SDS011;25426;53.478;10.190;2023-04-24T06:55:53;2.33;;;1.60;;
39740;SDS011;25426;53.478;10.190;2023-04-24T06:58:25;3.22;;;1.70;;
39740;SDS011;25426;53.478;10.190;2023-04-24T07:00:56;3.03;;;1.70;;
39740;SDS011;25426;53.478;10.190;2023-04-24T07:03:27;1.38;;;1.27;;
39740;SDS011;25426;53.478;10.190;2023-04-24T07:05:57;1.50;;;1.40;;
39740;SDS011;25426;53.478;10.190;2023-04-24T07:08:29;1.73;;;1.63;;
39740;SDS011;25426;53.478;10.190;2023-04-24T07:11:03;2.10;;;1.70;;
39740;SDS011;25426;53.478;10.190;2023-04-24T07:13:34;3.10;;;1.67;;
39740;SDS011;25426;53.478;10.190;2023-04-24T07:16:05;3.38;;;1.80;;
39740;SDS011;25426;53.478;10.190;2023-04-24T07:18:36;2.50;;;1.60;;
39740;SDS011;25426;53.478;10.190;2023-04-24T07:21:08;1.70;;;1.60;;
39740;SDS011;25426;53.478;10.190;2023-04-24T07:23:39;3.38;;;2.33;;
39740;SDS011;25426;53.478;10.190;2023-04-24T07:26:11;2.65;;;2.15;;
39740;SDS011;25426;53.478;10.190;2023-04-24T07:28:44;2.00;;;1.90;;
39740;SDS011;25426;53.478;10.190;2023-04-24T07:31:15;2.42;;;1.70;;
39740;SDS011;25426;53.478;10.190;2023-04-24T07:33:46;2.10;;;1.98;;
39740;SDS011;25426;53.478;10.190;2023-04-24T07:36:17;2.78;;;2.15;;
39740;SDS011;25426;53.478;10.190;2023-04-24T07:38:48;2.20;;;2.00;;
39740;SDS011;25426;53.478;10.190;2023-04-24T07:41:20;2.10;;;1.88;;
39740;SDS011;25426;53.478;10.190;2023-04-24T07:43:51;2.10;;;1.90;;
39740;SDS011;25426;53.478;10.190;2023-04-24T07:46:23;3.45;;;1.92;;
39740;SDS011;25426;53.478;10.190;2023-04-24T07:48:54;2.53;;;2.33;;
39740;SDS011;25426;53.478;10.190;2023-04-24T07:51:25;1.85;;;1.75;;
39740;SDS011;25426;53.478;10.190;2023-04-24T07:54:00;2.15;;;2.00;;
39740;SDS011;25426;53.478;10.190;2023-04-24T07:56:31;2.15;;;1.95;;
39740;SDS011;25426;53.478;10.190;2023-04-24T07:59:03;4.28;;;1.98;;
39740;SDS011;25426;53.478;10.190;2023-04-24T08:01:34;2.20;;;2.00;;
39740;SDS011;25426;53.478;10.190;2023-04-24T08:04:06;2.63;;;1.92;;
39740;SDS011;25426;53.478;10.190;2023-04-24T08:06:37;3.33;;;2.03;;
39740;SDS011;25426;53.478;10.190;2023-04-24T08:09:08;3.40;;;2.00;;
39740;SDS011;25426;53.478;10.190;2023-04-24T08:11:39;3.60;;;1.80;;
39740;SDS011;25426;53.478;10.190;2023-04-24T08:14:10;2.75;;;2.47;;
39740;SDS011;25426;53.478;10.190;2023-04-24T08:16:43;4.15;;;2.90;;
39740;SDS011;25426;53.478;10.190;2023-04-24T08:19:14;3.10;;;2.80;;
39740;SDS011;25426;53.478;10.190;2023-04-24T08:21:45;2.55;;;2.35;;
39740;SDS011;25426;53.478;10.190;2023-04-24T08:24:15;3.40;;;3.10;;
39740;SDS011;25426;53.478;10.190;2023-04-24T08:26:46;3.33;;;3.05;;
39740;SDS011;25426;53.478;10.190;2023-04-24T08:29:20;4.65;;;3.65;;
39740;SDS011;25426;53.478;10.190;2023-04-24T08:31:51;4.20;;;3.90;;
39740;SDS011;25426;53.478;10.190;2023-04-24T08:34:24;3.70;;;3.40;;
39740;SDS011;25426;53.478;10.190;2023-04-24T08:36:55;4.80;;;4.32;;
39740;SDS011;25426;53.478;10.190;2023-04-24T08:39:26;4.05;;;3.70;;
39740;SDS011;25426;53.478;10.190;2023-04-24T08:41:57;5.25;;;4.05;;
39740;SDS011;25426;53.478;10.190;2023-04-24T08:44:35;3.63;;;3.30;;
39740;SDS011;25426;53.478;10.190;2023-04-24T08:47:07;4.30;;;3.90;;
39740;SDS011;25426;53.478;10.190;2023-04-24T08:49:38;4.05;;;3.75;;
39740;SDS011;25426;53.478;10.190;2023-04-24T08:52:09;4.75;;;4.15;;
39740;SDS011;25426;53.478;10.190;2023-04-24T08:54:42;4.38;;;3.97;;
39740;SDS011;25426;53.478;10.190;2023-04-24T08:57:15;4.97;;;4.38;;
39740;SDS011;25426;53.478;10.190;2023-04-24T08:59:47;4.97;;;4.53;;
39740;SDS011;25426;53.478;10.190;2023-04-24T09:02:18;4.97;;;4.43;;
39740;SDS011;25426;53.478;10.190;2023-04-24T09:04:50;4.72;;;4.35;;
39740;SDS011;25426;53.478;10.190;2023-04-24T09:07:22;4.47;;;4.15;;
39740;SDS011;25426;53.478;10.190;2023-04-24T09:09:55;5.30;;;4.90;;
39740;SDS011;25426;53.478;10.190;2023-04-24T09:12:27;5.07;;;4.68;;
39740;SDS011;25426;53.478;10.190;2023-04-24T09:14:58;6.43;;;5.53;;
39740;SDS011;25426;53.478;10.190;2023-04-24T09:17:30;5.25;;;4.80;;
39740;SDS011;25426;53.478;10.190;2023-04-24T09:20:01;5.70;;;5.30;;
39740;SDS011;25426;53.478;10.190;2023-04-24T09:22:32;5.47;;;5.07;;
39740;SDS011;25426;53.478;10.190;2023-04-24T09:25:04;5.00;;;4.60;;
39740;SDS011;25426;53.478;10.190;2023-04-24T09:27:42;6.07;;;4.78;;
39740;SDS011;25426;53.478;10.190;2023-04-24T09:30:18;8.00;;;5.20;;
39740;SDS011;25426;53.478;10.190;2023-04-24T09:35:50;5.22;;;4.82;;
39740;SDS011;25426;53.478;10.190;2023-04-24T09:38:32;5.45;;;5.05;;
39740;SDS011;25426;53.478;10.190;2023-04-24T09:41:06;5.30;;;4.82;;
39740;SDS011;25426;53.478;10.190;2023-04-24T09:43:38;5.13;;;4.72;;
39740;SDS011;25426;53.478;10.190;2023-04-24T09:46:09;5.18;;;4.50;;
39740;SDS011;25426;53.478;10.190;2023-04-24T09:48:40;5.82;;;4.78;;
39740;SDS011;25426;53.478;10.190;2023-04-24T09:51:11;4.90;;;4.50;;
39740;SDS011;25426;53.478;10.190;2023-04-24T09:53:46;5.70;;;4.88;;
39740;SDS011;25426;53.478;10.190;2023-04-24T09:56:21;5.22;;;4.72;;
39740;SDS011;25426;53.478;10.190;2023-04-24T09:58:52;5.65;;;5.15;;
39740;SDS011;25426;53.478;10.190;2023-04-24T10:01:30;5.40;;;4.90;;
39740;SDS011;25426;53.478;10.190;2023-04-24T10:04:02;5.45;;;4.95;;
39740;SDS011;25426;53.478;10.190;2023-04-24T10:06:33;6.45;;;5.85;;
39740;SDS011;25426;53.478;10.190;2023-04-24T10:09:05;5.65;;;5.20;;
39740;SDS011;25426;53.478;10.190;2023-04-24T10:11:36;6.28;;;5.57;;
39740;SDS011;25426;53.478;10.190;2023-04-24T10:14:08;7.53;;;6.28;;
39740;SDS011;25426;53.478;10.190;2023-04-24T10:16:44;6.10;;;5.60;;
39740;SDS011;25426;53.478;10.190;2023-04-24T10:19:18;6.55;;;5.97;;
39740;SDS011;25426;53.478;10.190;2023-04-24T10:21:49;8.63;;;6.47;;
39740;SDS011;25426;53.478;10.190;2023-04-24T10:24:20;7.55;;;6.85;;
39740;SDS011;25426;53.478;10.190;2023-04-24T10:26:51;8.48;;;7.05;;
39740;SDS011;25426;53.478;10.190;2023-04-24T10:29:23;7.32;;;6.63;;
39740;SDS011;25426;53.478;10.190;2023-04-24T10:31:54;7.63;;;6.90;;
39740;SDS011;25426;53.478;10.190;2023-04-24T10:34:25;9.30;;;7.20;;
39740;SDS011;25426;53.478;10.190;2023-04-24T10:36:56;8.57;;;7.40;;
39740;SDS011;25426;53.478;10.190;2023-04-24T10:39:27;8.07;;;7.28;;
39740;SDS011;25426;53.478;10.190;2023-04-24T10:41:58;9.18;;;7.97;;
39740;SDS011;25426;53.478;10.190;2023-04-24T10:44:36;9.18;;;8.20;;
39740;SDS011;25426;53.478;10.190;2023-04-24T10:47:12;9.10;;;8.20;;
39740;SDS011;25426;53.478;10.190;2023-04-24T10:49:46;8.93;;;8.13;;
39740;SDS011;25426;53.478;10.190;2023-04-24T10:52:21;9.02;;;8.15;;
39740;SDS011;25426;53.478;10.190;2023-04-24T10:54:52;10.05;;;8.77;;
39740;SDS011;25426;53.478;10.190;2023-04-24T10:57:28;10.55;;;9.45;;
39740;SDS011;25426;53.478;10.190;2023-04-24T11:00:14;8.77;;;7.97;;
39740;SDS011;25426;53.478;10.190;2023-04-24T11:02:50;9.95;;;9.02;;
39740;SDS011;25426;53.478;10.190;2023-04-24T11:05:49;10.48;;;9.48;;
39740;SDS011;25426;53.478;10.190;2023-04-24T11:08:30;10.25;;;9.35;;
39740;SDS011;25426;53.478;10.190;2023-04-24T11:11:16;10.18;;;9.05;;
39740;SDS011;25426;53.478;10.190;2023-04-24T11:19:27;8.57;;;7.78;;
39740;SDS011;25426;53.478;10.190;2023-04-24T11:22:02;8.73;;;7.93;;
39740;SDS011;25426;53.478;10.190;2023-04-24T11:27:15;8.57;;;7.78;;
39740;SDS011;25426;53.478;10.190;2023-04-24T11:32:27;8.98;;;8.07;;
39740;SDS011;25426;53.478;10.190;2023-04-24T11:35:18;7.80;;;7.05;;
39740;SDS011;25426;53.478;10.190;2023-04-24T11:37:53;7.45;;;6.85;;
39740;SDS011;25426;53.478;10.190;2023-04-24T11:40:24;8.18;;;6.57;;
39740;SDS011;25426;53.478;10.190;2023-04-24T11:42:55;7.85;;;6.85;;
39740;SDS011;25426;53.478;10.190;2023-04-24T11:45:30;7.13;;;6.35;;
39740;SDS011;25426;53.478;10.190;2023-04-24T11:48:02;6.53;;;5.93;;
39740;SDS011;25426;53.478;10.190;2023-04-24T11:50:33;6.70;;;6.00;;
39740;SDS011;25426;53.478;10.190;2023-04-24T11:53:05;6.82;;;6.30;;
39740;SDS011;25426;53.478;10.190;2023-04-24T11:55:36;7.40;;;6.80;;
39740;SDS011;25426;53.478;10.190;2023-04-24T11:58:07;6.47;;;5.88;;
39740;SDS011;25426;53.478;10.190;2023-04-24T12:00:38;6.95;;;6.03;;
39740;SDS011;25426;53.478;10.190;2023-04-24T12:03:12;6.82;;;6.10;;
39740;SDS011;25426;53.478;10.190;2023-04-24T12:05:43;6.70;;;5.97;;
39740;SDS011;25426;53.478;10.190;2023-04-24T12:08:36;6.15;;;5.15;;
39740;SDS011;25426;53.478;10.190;2023-04-24T12:11:06;5.30;;;4.80;;
39740;SDS011;25426;53.478;10.190;2023-04-24T12:13:37;6.78;;;5.18;;
39740;SDS011;25426;53.478;10.190;2023-04-24T12:16:08;5.40;;;4.90;;
39740;SDS011;25426;53.478;10.190;2023-04-24T12:18:43;4.90;;;4.50;;
39740;SDS011;25426;53.478;10.190;2023-04-24T12:21:16;5.05;;;4.55;;
39740;SDS011;25426;53.478;10.190;2023-04-24T12:23:49;5.35;;;4.68;;
39740;SDS011;25426;53.478;10.190;2023-04-24T12:26:20;8.20;;;5.20;;
39740;SDS011;25426;53.478;10.190;2023-04-24T12:28:53;5.85;;;5.03;;
39740;SDS011;25426;53.478;10.190;2023-04-24T12:31:24;4.90;;;4.50;;
39740;SDS011;25426;53.478;10.190;2023-04-24T12:33:56;5.30;;;4.80;;
39740;SDS011;25426;53.478;10.190;2023-04-24T12:36:27;5.50;;;5.00;;
39740;SDS011;25426;53.478;10.190;2023-04-24T12:38:58;5.80;;;5.30;;
39740;SDS011;25426;53.478;10.190;2023-04-24T12:41:30;7.47;;;5.43;;
39740;SDS011;25426;53.478;10.190;2023-04-24T12:44:01;6.35;;;5.75;;
39740;SDS011;25426;53.478;10.190;2023-04-24T12:46:32;5.35;;;4.93;;
39740;SDS011;25426;53.478;10.190;2023-04-24T12:49:03;5.55;;;5.05;;
39740;SDS011;25426;53.478;10.190;2023-04-24T12:51:34;6.57;;;6.00;;
39740;SDS011;25426;53.478;10.190;2023-04-24T12:54:06;7.10;;;5.00;;
39740;SDS011;25426;53.478;10.190;2023-04-24T12:56:37;4.97;;;4.45;;
39740;SDS011;25426;53.478;10.190;2023-04-24T12:59:09;4.95;;;3.88;;
39740;SDS011;25426;53.478;10.190;2023-04-24T13:01:40;5.10;;;4.57;;
39740;SDS011;25426;53.478;10.190;2023-04-24T13:04:11;5.00;;;4.60;;
39740;SDS011;25426;53.478;10.190;2023-04-24T13:06:42;4.88;;;4.47;;
39740;SDS011;25426;53.478;10.190;2023-04-24T13:09:13;4.47;;;4.07;;
39740;SDS011;25426;53.478;10.190;2023-04-24T13:11:44;5.15;;;4.70;;
39740;SDS011;25426;53.478;10.190;2023-04-24T13:14:15;4.80;;;4.40;;
39740;SDS011;25426;53.478;10.190;2023-04-24T13:16:46;5.65;;;4.80;;
39740;SDS011;25426;53.478;10.190;2023-04-24T13:19:17;5.75;;;5.15;;
39740;SDS011;25426;53.478;10.190;2023-04-24T13:21:48;4.80;;;4.40;;
39740;SDS011;25426;53.478;10.190;2023-04-24T13:24:19;5.38;;;4.90;;
39740;SDS011;25426;53.478;10.190;2023-04-24T13:26:51;4.63;;;4.22;;
39740;SDS011;25426;53.478;10.190;2023-04-24T13:29:22;6.18;;;5.57;;
39740;SDS011;25426;53.478;10.190;2023-04-24T13:31:54;6.10;;;5.60;;
39740;SDS011;25426;53.478;10.190;2023-04-24T13:34:25;5.85;;;5.35;;
39740;SDS011;25426;53.478;10.190;2023-04-24T13:36:57;5.63;;;5.13;;
39740;SDS011;25426;53.478;10.190;2023-04-24T13:39:28;5.35;;;4.95;;
39740;SDS011;25426;53.478;10.190;2023-04-24T13:41:59;5.88;;;4.88;;
39740;SDS011;25426;53.478;10.190;2023-04-24T13:44:30;6.72;;;4.50;;
39740;SDS011;25426;53.478;10.190;2023-04-24T13:47:01;4.18;;;3.88;;
39740;SDS011;25426;53.478;10.190;2023-04-24T13:49:32;5.72;;;4.10;;
39740;SDS011;25426;53.478;10.190;2023-04-24T13:52:03;4.57;;;4.22;;
39740;SDS011;25426;53.478;10.190;2023-04-24T13:54:34;6.30;;;3.85;;
39740;SDS011;25426;53.478;10.190;2023-04-24T13:57:05;4.93;;;4.53;;
39740;SDS011;25426;53.478;10.190;2023-04-24T13:59:36;4.45;;;4.15;;
39740;SDS011;25426;53.478;10.190;2023-04-24T14:02:07;4.60;;;4.20;;
39740;SDS011;25426;53.478;10.190;2023-04-24T14:04:38;5.15;;;4.65;;
39740;SDS011;25426;53.478;10.190;2023-04-24T14:07:09;4.45;;;4.05;;
39740;SDS011;25426;53.478;10.190;2023-04-24T14:09:40;4.13;;;3.83;;
39740;SDS011;25426;53.478;10.190;2023-04-24T14:12:11;3.67;;;3.38;;
39740;SDS011;25426;53.478;10.190;2023-04-24T14:14:42;3.88;;;3.58;;
39740;SDS011;25426;53.478;10.190;2023-04-24T14:17:13;4.03;;;3.63;;
39740;SDS011;25426;53.478;10.190;2023-04-24T14:19:44;5.53;;;3.38;;
39740;SDS011;25426;53.478;10.190;2023-04-24T14:22:15;7.05;;;3.95;;
39740;SDS011;25426;53.478;10.190;2023-04-24T14:24:46;5.03;;;3.40;;
39740;SDS011;25426;53.478;10.190;2023-04-24T14:27:17;4.22;;;3.83;;
39740;SDS011;25426;53.478;10.190;2023-04-24T14:29:48;5.22;;;4.40;;
39740;SDS011;25426;53.478;10.190;2023-04-24T14:32:19;4.53;;;4.13;;
39740;SDS011;25426;53.478;10.190;2023-04-24T14:34:50;4.78;;;4.38;;
39740;SDS011;25426;53.478;10.190;2023-04-24T14:37:21;4.40;;;4.00;;
39740;SDS011;25426;53.478;10.190;2023-04-24T14:39:52;4.60;;;4.10;;
39740;SDS011;25426;53.478;10.190;2023-04-24T14:42:23;4.20;;;3.80;;
39740;SDS011;25426;53.478;10.190;2023-04-24T14:44:54;4.60;;;4.20;;
39740;SDS011;25426;53.478;10.190;2023-04-24T14:47:25;3.50;;;3.20;;
39740;SDS011;25426;53.478;10.190;2023-04-24T14:49:56;3.80;;;3.50;;
39740;SDS011;25426;53.478;10.190;2023-04-24T14:52:32;3.95;;;3.60;;
39740;SDS011;25426;53.478;10.190;2023-04-24T14:55:03;3.13;;;2.92;;
39740;SDS011;25426;53.478;10.190;2023-04-24T14:57:36;2.90;;;2.70;;
39740;SDS011;25426;53.478;10.190;2023-04-24T15:00:07;3.05;;;2.75;;
39740;SDS011;25426;53.478;10.190;2023-04-24T15:02:40;3.40;;;3.10;;
39740;SDS011;25426;53.478;10.190;2023-04-24T15:05:14;2.60;;;2.40;;
39740;SDS011;25426;53.478;10.190;2023-04-24T15:07:47;2.88;;;2.67;;
39740;SDS011;25426;53.478;10.190;2023-04-24T15:10:18;3.20;;;2.90;;
39740;SDS011;25426;53.478;10.190;2023-04-24T15:12:52;3.80;;;3.38;;
39740;SDS011;25426;53.478;10.190;2023-04-24T15:15:23;3.63;;;3.33;;
39740;SDS011;25426;53.478;10.190;2023-04-24T15:17:54;3.78;;;3.47;;
39740;SDS011;25426;53.478;10.190;2023-04-24T15:20:25;4.60;;;4.20;;